Negley, Ohio
Current Conditions -  °F | °C
As of 6:47 PM on Wednesday 26 Nov 2014 (Local Time) from KBVI Reporting Station
Overcast Overcast  
Wind Chill: 32°   Ceiling: 700
Heat Index: 32°   Visibility: 7mi
Dew Point: 32°   Wind: 0mph
Humidity: 100%   Direction: NA
Pressure: 30"   Gusts: NA
Location:  40.79°N, 80.54°W
Report Text: KBVI 262347Z 00000KT 07SM OVC007 00/00 A3000
Loading
Personal Weather Stations






























Interactive Weather Map New forecast layout! Learn more

10-Day Weather Forecast

Advertisements
Track Severe Weather on mobile